Time;durP1;ratioP1;P1;durP2;ratioP2;P2;SDS_P1;SDS_P2;PMS_P1;PMS_P2;Temp;Humidity;BMP_temperature;BMP_pressure;BME280_temperature;BME280_humidity;BME280_pressure;Samples;Min_cycle;Max_cycle;Signal;HPM_P1;HPM_P2
2023/01/11 00:02:35;;;;;;;65.38;22.63;;;;;;;;;;8210767;28;20047;-83
2023/01/11 00:06:38;;;;;;;69.40;22.40;;;;;;;;;;8187601;28;20047;-83
2023/01/11 00:10:42;;;;;;;70.43;23.20;;;;;;;;;;8209411;28;20043;-83
2023/01/11 00:14:46;;;;;;;65.18;22.45;;;;;;;;;;8200448;28;20082;-83
2023/01/11 00:18:49;;;;;;;66.78;23.98;;;;;;;;;;8173593;29;20174;-86
2023/01/11 00:22:52;;;;;;;67.13;23.88;;;;;;;;;;8200386;29;20043;-85
2023/01/11 00:26:55;;;;;;;62.75;22.00;;;;;;;;;;8200013;29;20047;-84
2023/01/11 00:31:00;;;;;;;58.22;19.95;;;;;;;;;;8200370;29;20507;-83
2023/01/11 00:35:03;;;;;;;59.22;19.63;;;;;;;;;;8199927;29;20051;-83
2023/01/11 00:39:06;;;;;;;60.20;20.85;;;;;;;;;;8199790;29;20040;-84
2023/01/11 00:51:51;;;;;;;67.60;22.70;;;;;;;;;;8200000;28;20040;-83
2023/01/11 00:55:54;;;;;;;60.75;20.63;;;;;;;;;;8206473;29;20062;-84
2023/01/11 00:59:57;;;;;;;68.38;23.10;;;;;;;;;;8206167;29;20125;-83
2023/01/11 01:04:02;;;;;;;60.35;21.27;;;;;;;;;;8206595;29;20463;-84
2023/01/11 01:08:06;;;;;;;58.05;21.48;;;;;;;;;;8218838;28;20139;-83
2023/01/11 01:12:09;;;;;;;63.50;21.60;;;;;;;;;;8205684;29;20523;-83
2023/01/11 01:16:12;;;;;;;63.20;21.85;;;;;;;;;;8206276;29;20066;-84
2023/01/11 01:20:17;;;;;;;59.85;21.85;;;;;;;;;;8197764;28;20047;-85
2023/01/11 01:24:20;;;;;;;62.95;23.90;;;;;;;;;;8178237;29;20415;-83
2023/01/11 01:28:24;;;;;;;61.90;21.58;;;;;;;;;;8205323;29;20051;-85
2023/01/11 01:32:26;;;;;;;63.72;21.73;;;;;;;;;;8205391;29;20482;-84
2023/01/11 01:36:31;;;;;;;74.50;22.83;;;;;;;;;;8205323;29;20130;-84
2023/01/11 01:40:33;;;;;;;63.25;22.77;;;;;;;;;;8204737;29;20059;-83
2023/01/11 01:44:56;;;;;;;74.63;23.13;;;;;;;;;;8204847;29;20546;-84
2023/01/11 01:49:02;;;;;;;65.88;23.17;;;;;;;;;;8193092;29;20039;-83
2023/01/11 01:53:11;;;;;;;72.88;24.33;;;;;;;;;;8186131;29;20091;-83
2023/01/11 01:57:19;;;;;;;74.28;23.13;;;;;;;;;;8192664;29;20057;-84
2023/01/11 02:05:42;;;;;;;79.20;26.27;;;;;;;;;;8203714;28;20101;-86
2023/01/11 02:09:52;;;;;;;67.63;24.05;;;;;;;;;;8204073;29;20094;-84
2023/01/11 02:13:55;;;;;;;61.42;21.35;;;;;;;;;;8204162;29;20142;-84
2023/01/11 02:17:58;;;;;;;66.95;21.60;;;;;;;;;;8204189;29;20047;-83
2023/01/11 02:22:17;;;;;;;65.95;23.85;;;;;;;;;;8203898;29;20093;-84
2023/01/11 02:26:47;;;;;;;71.78;24.60;;;;;;;;;;8192956;29;20046;-84
2023/01/11 02:31:00;;;;;;;68.70;23.92;;;;;;;;;;8196759;28;20155;-84
2023/01/11 02:35:13;;;;;;;68.07;23.23;;;;;;;;;;8197581;29;20173;-84
2023/01/11 02:39:21;;;;;;;58.25;22.58;;;;;;;;;;8192526;29;20051;-83
2023/01/11 02:47:57;;;;;;;59.60;21.63;;;;;;;;;;8203052;29;20488;-84
2023/01/11 02:52:07;;;;;;;55.25;19.67;;;;;;;;;;8202740;29;20097;-83
2023/01/11 02:56:13;;;;;;;62.97;21.75;;;;;;;;;;8202887;29;20051;-85
2023/01/11 03:00:18;;;;;;;52.40;20.75;;;;;;;;;;8177819;29;20472;-83
2023/01/11 03:04:28;;;;;;;59.47;20.48;;;;;;;;;;8193941;29;20051;-83
2023/01/11 03:08:43;;;;;;;54.25;19.92;;;;;;;;;;8195503;29;20139;-83
2023/01/11 03:12:58;;;;;;;55.05;20.17;;;;;;;;;;8196670;29;20055;-83
2023/01/11 03:17:09;;;;;;;52.20;20.30;;;;;;;;;;8201721;28;20053;-84
2023/01/11 03:21:23;;;;;;;55.33;19.42;;;;;;;;;;8201717;29;20054;-87
2023/01/11 03:25:35;;;;;;;51.72;20.73;;;;;;;;;;8186973;28;20155;-83
2023/01/11 03:29:45;;;;;;;56.20;20.20;;;;;;;;;;8202157;29;20439;-83
2023/01/11 03:33:55;;;;;;;56.10;20.17;;;;;;;;;;8201661;29;20051;-83
2023/01/11 03:38:04;;;;;;;55.65;20.48;;;;;;;;;;8202143;29;20134;-84
2023/01/11 03:42:11;;;;;;;55.25;20.40;;;;;;;;;;8201449;29;20125;-84
2023/01/11 03:46:16;;;;;;;56.55;20.02;;;;;;;;;;8201537;29;20070;-84
2023/01/11 03:50:19;;;;;;;53.58;19.98;;;;;;;;;;8201032;29;20053;-83
2023/01/11 03:54:25;;;;;;;55.70;19.13;;;;;;;;;;8201201;29;20134;-83
2023/01/11 03:58:29;;;;;;;53.95;19.30;;;;;;;;;;8201009;29;20488;-83
2023/01/11 04:02:36;;;;;;;54.92;20.20;;;;;;;;;;8200886;29;20050;-83
2023/01/11 04:06:38;;;;;;;60.08;19.92;;;;;;;;;;8188968;29;20055;-84
2023/01/11 04:10:43;;;;;;;58.42;19.77;;;;;;;;;;8188256;28;20365;-84
2023/01/11 04:14:46;;;;;;;53.53;18.27;;;;;;;;;;8200255;28;20059;-83
2023/01/11 04:18:48;;;;;;;49.83;18.77;;;;;;;;;;8200714;29;20105;-83
2023/01/11 04:22:51;;;;;;;61.38;19.92;;;;;;;;;;8200468;29;20043;-84
2023/01/11 04:26:55;;;;;;;56.83;19.48;;;;;;;;;;8199937;28;20127;-84
2023/01/11 04:30:58;;;;;;;53.63;18.42;;;;;;;;;;8200249;29;20043;-83
2023/01/11 04:35:01;;;;;;;53.67;18.02;;;;;;;;;;8200539;29;20069;-84
2023/01/11 04:39:05;;;;;;;52.65;18.17;;;;;;;;;;8200200;29;20047;-83
2023/01/11 04:43:09;;;;;;;52.95;19.42;;;;;;;;;;8200018;29;20055;-84
2023/01/11 04:47:12;;;;;;;62.20;19.90;;;;;;;;;;8209760;28;20047;-84
2023/01/11 04:51:15;;;;;;;62.80;19.02;;;;;;;;;;8188751;29;20194;-84
2023/01/11 04:55:18;;;;;;;53.28;19.08;;;;;;;;;;8200278;29;20489;-83
2023/01/11 04:59:22;;;;;;;62.17;20.90;;;;;;;;;;8200114;29;20381;-84
2023/01/11 05:03:25;;;;;;;53.03;17.42;;;;;;;;;;8200036;29;20570;-89
2023/01/11 05:07:28;;;;;;;55.22;17.60;;;;;;;;;;8200131;29;20484;-82
2023/01/11 05:11:32;;;;;;;52.13;16.48;;;;;;;;;;8199367;29;20047;-84
2023/01/11 05:15:36;;;;;;;57.65;17.92;;;;;;;;;;8199153;28;20051;-88
2023/01/11 05:19:39;;;;;;;54.90;17.27;;;;;;;;;;8186419;29;20051;-83
2023/01/11 05:23:42;;;;;;;60.95;19.73;;;;;;;;;;8178675;29;20050;-83
2023/01/11 05:27:45;;;;;;;77.30;24.80;;;;;;;;;;8199648;29;20538;-83
2023/01/11 05:31:49;;;;;;;63.97;23.40;;;;;;;;;;8195337;28;20054;-83
2023/01/11 05:35:58;;;;;;;95.57;31.60;;;;;;;;;;8188031;29;20047;-84
2023/01/11 05:40:01;;;;;;;71.88;25.05;;;;;;;;;;8201080;28;20051;-83
2023/01/11 05:48:26;;;;;;;49.15;16.98;;;;;;;;;;8204885;29;20527;-88
2023/01/11 05:52:29;;;;;;;54.25;17.88;;;;;;;;;;8205149;29;20055;-88
2023/01/11 05:56:32;;;;;;;67.25;20.85;;;;;;;;;;8204951;29;20051;-87
2023/01/11 06:00:34;;;;;;;94.20;25.88;;;;;;;;;;8202632;28;20107;-83
2023/01/11 06:04:38;;;;;;;151.90;26.02;;;;;;;;;;8187654;28;20048;-84
2023/01/11 06:08:41;;;;;;;111.30;26.98;;;;;;;;;;8181597;28;20051;-84
2023/01/11 06:12:44;;;;;;;264.98;67.82;;;;;;;;;;8173293;28;20081;-83
2023/01/11 06:16:46;;;;;;;302.40;77.60;;;;;;;;;;8187350;28;20481;-84
2023/01/11 06:20:52;;;;;;;202.80;30.98;;;;;;;;;;8193917;28;20098;-83
2023/01/11 06:24:55;;;;;;;145.85;19.58;;;;;;;;;;8196188;28;20095;-83
2023/01/11 06:28:58;;;;;;;204.77;21.13;;;;;;;;;;8203647;29;20497;-86
2023/01/11 06:33:04;;;;;;;164.45;22.27;;;;;;;;;;8197655;29;20105;-87
2023/01/11 06:37:08;;;;;;;169.38;17.88;;;;;;;;;;8203477;29;20047;-84
2023/01/11 06:41:12;;;;;;;189.07;29.67;;;;;;;;;;8203140;29;20506;-84
2023/01/11 06:45:15;;;;;;;251.45;30.08;;;;;;;;;;8203647;29;20049;-87
2023/01/11 06:49:18;;;;;;;168.55;28.20;;;;;;;;;;8202947;29;20050;-84
2023/01/11 06:53:23;;;;;;;112.55;20.70;;;;;;;;;;8198912;28;20050;-83
2023/01/11 06:57:26;;;;;;;139.27;18.17;;;;;;;;;;8197799;28;20062;-84
2023/01/11 07:01:29;;;;;;;150.23;23.73;;;;;;;;;;8197650;28;20540;-86
2023/01/11 07:05:33;;;;;;;161.68;19.67;;;;;;;;;;8197103;29;20048;-84
2023/01/11 07:09:37;;;;;;;323.05;85.95;;;;;;;;;;8202016;29;20122;-83
2023/01/11 07:13:40;;;;;;;81.88;16.33;;;;;;;;;;8199689;28;20465;-84
2023/01/11 07:17:43;;;;;;;315.77;41.28;;;;;;;;;;8196016;28;20054;-82
2023/01/11 07:21:45;;;;;;;243.60;81.32;;;;;;;;;;8192124;28;20057;-83
2023/01/11 07:25:50;;;;;;;200.32;49.22;;;;;;;;;;8207758;28;20411;-84
2023/01/11 07:29:53;;;;;;;131.57;56.17;;;;;;;;;;8188588;28;20035;-84
2023/01/11 07:33:56;;;;;;;167.55;55.00;;;;;;;;;;8198236;28;20047;-84
2023/01/11 07:37:59;;;;;;;124.60;45.15;;;;;;;;;;8194958;28;20122;-89
2023/01/11 07:46:23;;;;;;;78.95;30.88;;;;;;;;;;8203413;28;20126;-90
2023/01/11 07:50:26;;;;;;;220.23;33.45;;;;;;;;;;8201201;28;20115;-84
2023/01/11 07:54:29;;;;;;;173.25;72.40;;;;;;;;;;8195962;28;20744;-86
2023/01/11 07:58:33;;;;;;;283.00;52.28;;;;;;;;;;8196479;28;20049;-84
2023/01/11 08:02:36;;;;;;;70.32;21.77;;;;;;;;;;8194234;28;20063;-90
2023/01/11 08:06:39;;;;;;;92.20;33.15;;;;;;;;;;8204538;28;20046;-87
2023/01/11 08:10:42;;;;;;;94.70;31.30;;;;;;;;;;8195460;28;20035;-89
2023/01/11 08:14:46;;;;;;;88.30;41.85;;;;;;;;;;8167118;28;20178;-85
2023/01/11 08:18:49;;;;;;;104.32;54.97;;;;;;;;;;8167548;29;20071;-84
2023/01/11 08:22:52;;;;;;;64.38;30.52;;;;;;;;;;8158426;29;20043;-89
2023/01/11 08:26:55;;;;;;;59.10;25.85;;;;;;;;;;8137561;29;20432;-85
2023/01/11 08:30:59;;;;;;;122.63;33.22;;;;;;;;;;8135345;29;20163;-86
2023/01/11 08:35:03;;;;;;;214.48;95.93;;;;;;;;;;8152676;29;20511;-91
2023/01/11 08:39:06;;;;;;;284.08;96.95;;;;;;;;;;8167211;29;20047;-87
2023/01/11 08:43:09;;;;;;;326.73;203.02;;;;;;;;;;8168588;29;20102;-87
2023/01/11 08:47:14;;;;;;;70.50;30.85;;;;;;;;;;8168014;29;20488;-87
2023/01/11 08:51:17;;;;;;;142.15;50.80;;;;;;;;;;8168346;29;20585;-87
2023/01/11 08:55:20;;;;;;;91.72;48.50;;;;;;;;;;8168011;29;20551;-87
2023/01/11 08:59:24;;;;;;;106.20;56.40;;;;;;;;;;8139782;29;20075;-86
2023/01/11 09:03:29;;;;;;;128.02;62.72;;;;;;;;;;8134547;29;20051;-87
2023/01/11 09:07:32;;;;;;;84.55;59.13;;;;;;;;;;8134562;29;20604;-88
2023/01/11 09:15:58;;;;;;;46.38;24.40;;;;;;;;;;8182413;29;20074;-86
2023/01/11 09:20:03;;;;;;;71.65;47.85;;;;;;;;;;8169759;29;20051;-88
2023/01/11 09:24:06;;;;;;;61.47;46.53;;;;;;;;;;8182040;29;20413;-85
2023/01/11 09:28:12;;;;;;;36.08;20.25;;;;;;;;;;8183036;29;20189;-88
2023/01/11 09:32:16;;;;;;;30.48;14.55;;;;;;;;;;8171110;29;20126;-87
2023/01/11 09:36:23;;;;;;;28.40;13.95;;;;;;;;;;8181526;29;20455;-88
2023/01/11 09:40:34;;;;;;;50.15;23.60;;;;;;;;;;8168784;29;20067;-87
2023/01/11 09:44:48;;;;;;;24.33;12.68;;;;;;;;;;8169070;29;20059;-86
2023/01/11 09:48:57;;;;;;;27.30;13.27;;;;;;;;;;8169121;29;20039;-86
2023/01/11 09:53:07;;;;;;;22.38;11.18;;;;;;;;;;8169393;29;20054;-87
2023/01/11 09:57:18;;;;;;;29.52;16.23;;;;;;;;;;8197326;28;20058;-87
2023/01/11 10:01:30;;;;;;;25.30;13.38;;;;;;;;;;8171005;29;20134;-87
2023/01/11 10:05:50;;;;;;;20.73;9.88;;;;;;;;;;8168379;29;20481;-87
2023/01/11 10:10:08;;;;;;;17.77;9.90;;;;;;;;;;8167959;29;20047;-88
2023/01/11 10:14:24;;;;;;;19.13;9.32;;;;;;;;;;8180280;29;20158;-88
2023/01/11 10:18:49;;;;;;;15.85;8.02;;;;;;;;;;8178201;29;20051;-87
2023/01/11 10:23:03;;;;;;;17.05;9.82;;;;;;;;;;8174198;29;20051;-87
2023/01/11 10:27:16;;;;;;;20.98;10.70;;;;;;;;;;8171184;29;20143;-87
2023/01/11 10:31:40;;;;;;;22.58;12.00;;;;;;;;;;8167660;29;20087;-87
2023/01/11 10:36:09;;;;;;;21.55;10.15;;;;;;;;;;8150565;29;20392;-87
2023/01/11 10:40:33;;;;;;;20.75;10.40;;;;;;;;;;8166893;29;20056;-87
2023/01/11 10:44:48;;;;;;;25.40;11.38;;;;;;;;;;8179769;29;20051;-85
2023/01/11 10:49:02;;;;;;;24.25;10.63;;;;;;;;;;8159647;29;20054;-86
2023/01/11 10:53:15;;;;;;;23.65;10.35;;;;;;;;;;8166765;29;20051;-88
2023/01/11 10:57:25;;;;;;;23.63;12.68;;;;;;;;;;8176217;29;20057;-89
2023/01/11 11:01:47;;;;;;;26.50;12.32;;;;;;;;;;8168392;29;20544;-87
2023/01/11 11:05:56;;;;;;;24.77;12.80;;;;;;;;;;8175418;29;20078;-87
2023/01/11 11:10:08;;;;;;;26.45;12.40;;;;;;;;;;8183749;29;20055;-87
2023/01/11 11:14:19;;;;;;;33.30;14.43;;;;;;;;;;8168646;29;20405;-87
2023/01/11 11:18:23;;;;;;;32.60;14.33;;;;;;;;;;8191849;29;20047;-90
2023/01/11 11:22:27;;;;;;;28.48;12.30;;;;;;;;;;8169280;29;20114;-87
2023/01/11 11:26:37;;;;;;;25.85;12.20;;;;;;;;;;8170215;29;20047;-86
2023/01/11 11:30:43;;;;;;;28.65;13.43;;;;;;;;;;8171112;29;20061;-90
2023/01/11 11:34:50;;;;;;;14.10;7.28;;;;;;;;;;8169807;29;20085;-89
2023/01/11 11:39:10;;;;;;;12.85;6.75;;;;;;;;;;8160753;28;20373;-88
2023/01/11 11:43:23;;;;;;;25.15;10.32;;;;;;;;;;8165719;29;20147;-87
2023/01/11 11:47:25;;;;;;;17.15;8.68;;;;;;;;;;8154747;29;20516;-87
2023/01/11 11:51:30;;;;;;;26.52;11.60;;;;;;;;;;8181115;29;20054;-87
2023/01/11 11:55:38;;;;;;;23.40;11.63;;;;;;;;;;8165022;29;20484;-88
2023/01/11 11:59:47;;;;;;;23.58;10.45;;;;;;;;;;8194278;28;20059;-87
2023/01/11 12:03:51;;;;;;;6.53;2.97;;;;;;;;;;8164834;29;20777;-88
2023/01/11 12:07:57;;;;;;;23.45;9.18;;;;;;;;;;8170022;28;20078;-87
2023/01/11 12:12:01;;;;;;;17.08;8.35;;;;;;;;;;8167056;29;20047;-88
2023/01/11 12:16:06;;;;;;;19.63;8.63;;;;;;;;;;8168208;29;20519;-87
2023/01/11 12:20:29;;;;;;;24.55;10.10;;;;;;;;;;8166101;29;20052;-88
2023/01/11 12:24:33;;;;;;;25.70;11.88;;;;;;;;;;8175992;29;20055;-88
2023/01/11 12:29:00;;;;;;;18.80;8.85;;;;;;;;;;8177102;29;20078;-88
2023/01/11 12:33:18;;;;;;;24.60;11.80;;;;;;;;;;8199830;28;20051;-88
2023/01/11 12:37:33;;;;;;;32.25;12.45;;;;;;;;;;8175739;29;20138;-87
2023/01/11 12:41:52;;;;;;;18.65;9.60;;;;;;;;;;8167210;29;20055;-86
2023/01/11 12:46:05;;;;;;;24.58;11.23;;;;;;;;;;8178881;29;20501;-87
2023/01/11 12:50:16;;;;;;;19.67;7.63;;;;;;;;;;8175277;29;20578;-86
2023/01/11 12:54:38;;;;;;;23.45;11.43;;;;;;;;;;8176964;29;20134;-89
2023/01/11 12:58:48;;;;;;;32.47;12.93;;;;;;;;;;8174401;29;20067;-88
2023/01/11 13:03:19;;;;;;;35.88;13.95;;;;;;;;;;8173784;29;20051;-87
2023/01/11 13:07:33;;;;;;;14.10;7.15;;;;;;;;;;8177427;29;20400;-88
2023/01/11 13:11:47;;;;;;;27.08;11.20;;;;;;;;;;8177446;29;20138;-87
2023/01/11 13:15:59;;;;;;;26.45;13.00;;;;;;;;;;8189239;28;20071;-88
2023/01/11 13:20:34;;;;;;;20.63;9.85;;;;;;;;;;8178823;29;20488;-88
2023/01/11 13:24:38;;;;;;;23.35;11.25;;;;;;;;;;8150385;29;20055;-88
2023/01/11 13:28:46;;;;;;;33.38;13.82;;;;;;;;;;8178990;29;20060;-87
2023/01/11 13:32:55;;;;;;;18.98;8.93;;;;;;;;;;8191165;29;20558;-88
2023/01/11 13:37:02;;;;;;;20.80;9.07;;;;;;;;;;8188129;29;20048;-87
2023/01/11 13:41:14;;;;;;;16.55;7.68;;;;;;;;;;8191238;29;20063;-86
2023/01/11 13:45:21;;;;;;;24.75;10.50;;;;;;;;;;8187061;28;20059;-85
2023/01/11 13:49:38;;;;;;;21.00;8.95;;;;;;;;;;8188715;28;20055;-86
2023/01/11 13:53:47;;;;;;;22.38;9.27;;;;;;;;;;8186440;29;20115;-85
2023/01/11 13:57:58;;;;;;;15.02;7.28;;;;;;;;;;8173412;29;20475;-89
2023/01/11 14:02:10;;;;;;;21.85;8.90;;;;;;;;;;8181142;28;20058;-88
2023/01/11 14:06:25;;;;;;;;;;;;;;;;;;8176467;29;20129;-89
2023/01/11 14:10:44;;;;;;;18.60;9.05;;;;;;;;;;8173697;29;19926;-88
2023/01/11 14:15:06;;;;;;;21.85;8.88;;;;;;;;;;8169193;29;20091;-88
2023/01/11 14:19:16;;;;;;;;;;;;;;;;;;8170335;29;20102;-88
2023/01/11 14:23:24;;;;;;;19.75;9.18;;;;;;;;;;8184439;29;19923;-87
2023/01/11 14:27:54;;;;;;;6.35;3.50;;;;;;;;;;8181435;29;20083;-88
2023/01/11 14:32:24;;;;;;;18.73;8.50;;;;;;;;;;8172824;29;20499;-88
2023/01/11 14:36:53;;;;;;;12.65;6.75;;;;;;;;;;8170092;29;20499;-87
2023/01/11 14:41:15;;;;;;;11.85;5.47;;;;;;;;;;8172841;29;20070;-88
2023/01/11 14:45:32;;;;;;;20.52;8.43;;;;;;;;;;8198224;28;20535;-87
2023/01/11 14:49:51;;;;;;;16.27;7.20;;;;;;;;;;8157262;29;20050;-87
2023/01/11 14:54:03;;;;;;;31.92;11.88;;;;;;;;;;8166974;29;20071;-87
2023/01/11 14:58:20;;;;;;;39.58;14.20;;;;;;;;;;8179682;29;20050;-88
2023/01/11 15:02:30;;;;;;;19.38;9.15;;;;;;;;;;8172874;29;20047;-88
2023/01/11 15:06:53;;;;;;;17.33;9.00;;;;;;;;;;8169172;28;20548;-87
2023/01/11 15:10:57;;;;;;;41.95;14.52;;;;;;;;;;8184631;29;20055;-88
2023/01/11 15:15:06;;;;;;;32.55;13.40;;;;;;;;;;8161059;29;20519;-87
2023/01/11 15:19:24;;;;;;;17.95;9.73;;;;;;;;;;8173259;29;20728;-87
2023/01/11 15:23:27;;;;;;;25.55;12.10;;;;;;;;;;8170401;29;20145;-88
2023/01/11 15:27:35;;;;;;;26.60;10.90;;;;;;;;;;8168293;29;20044;-88
2023/01/11 15:31:50;;;;;;;24.33;11.40;;;;;;;;;;8169367;29;20091;-88
2023/01/11 15:36:06;;;;;;;39.90;17.35;;;;;;;;;;8156134;29;20056;-88
2023/01/11 15:40:17;;;;;;;40.40;15.13;;;;;;;;;;8172598;29;20489;-87
2023/01/11 15:44:47;;;;;;;23.65;11.13;;;;;;;;;;8177933;29;20052;-88
2023/01/11 15:54:00;;;;;;;27.08;10.68;;;;;;;;;;8487650;27;1990415;-88
2023/01/11 15:58:27;;;;;;;23.45;10.68;;;;;;;;;;8551747;27;20042;-88
2023/01/11 16:03:03;;;;;;;27.92;12.75;;;;;;;;;;8554963;27;20054;-88
2023/01/11 16:07:18;;;;;;;32.40;13.55;;;;;;;;;;8547164;27;20046;-86
2023/01/11 16:11:31;;;;;;;28.70;12.52;;;;;;;;;;8544910;27;20057;-86
2023/01/11 16:15:44;;;;;;;29.88;13.02;;;;;;;;;;8554443;27;20134;-88
2023/01/11 16:19:51;;;;;;;33.72;14.05;;;;;;;;;;8555044;27;20084;-87
2023/01/11 16:23:57;;;;;;;37.80;18.88;;;;;;;;;;8528530;27;20050;-85
2023/01/11 16:28:02;;;;;;;40.47;16.75;;;;;;;;;;8554228;27;20483;-88
2023/01/11 16:32:13;;;;;;;35.80;15.82;;;;;;;;;;8554471;27;20049;-86
2023/01/11 16:36:20;;;;;;;34.65;14.35;;;;;;;;;;8533652;27;20038;-86
2023/01/11 16:40:33;;;;;;;36.42;15.70;;;;;;;;;;8543221;27;20545;-87
2023/01/11 16:44:46;;;;;;;39.40;16.95;;;;;;;;;;8515851;27;20145;-87
2023/01/11 16:48:55;;;;;;;36.22;16.13;;;;;;;;;;8550471;27;20052;-86
2023/01/11 16:53:09;;;;;;;105.40;51.13;;;;;;;;;;8539347;27;20059;-89
2023/01/11 16:57:19;;;;;;;70.72;29.85;;;;;;;;;;8537516;27;20074;-87
2023/01/11 17:01:23;;;;;;;108.38;53.03;;;;;;;;;;8533671;27;20053;-89
2023/01/11 17:05:26;;;;;;;40.47;17.95;;;;;;;;;;8510377;27;20073;-87
2023/01/11 17:09:29;;;;;;;33.60;13.80;;;;;;;;;;8506814;27;20043;-87
2023/01/11 17:14:03;;;;;;;109.38;41.97;;;;;;;;;;8523597;27;20046;-90
2023/01/11 17:18:10;;;;;;;129.48;60.58;;;;;;;;;;8508753;27;20114;-87
2023/01/11 17:22:26;;;;;;;39.35;16.33;;;;;;;;;;8515701;27;20119;-87
2023/01/11 17:26:33;;;;;;;55.95;24.90;;;;;;;;;;8513138;27;20046;-89
2023/01/11 17:30:37;;;;;;;53.60;23.42;;;;;;;;;;8519815;27;20141;-87
2023/01/11 17:34:43;;;;;;;19.42;9.02;;;;;;;;;;8509966;27;20191;-89
2023/01/11 17:38:46;;;;;;;45.97;20.52;;;;;;;;;;8525099;27;20134;-87
2023/01/11 17:47:12;;;;;;;48.37;23.97;;;;;;;;;;8514176;27;20076;-87
2023/01/11 17:51:25;;;;;;;45.22;22.52;;;;;;;;;;8515654;27;20047;-87
2023/01/11 17:55:29;;;;;;;193.57;93.65;;;;;;;;;;8517895;27;20133;-87
2023/01/11 17:59:32;;;;;;;132.38;60.08;;;;;;;;;;8525223;27;20072;-87
2023/01/11 18:03:41;;;;;;;47.10;19.05;;;;;;;;;;8523374;27;20047;-88
2023/01/11 18:08:24;;;;;;;107.35;52.88;;;;;;;;;;8508908;27;20073;-86
2023/01/11 18:12:43;;;;;;;52.10;26.08;;;;;;;;;;8508529;27;20070;-85
2023/01/11 18:17:05;;;;;;;39.63;17.10;;;;;;;;;;8513348;27;20152;-86
2023/01/11 18:21:40;;;;;;;34.47;15.15;;;;;;;;;;8526678;27;20126;-86
2023/01/11 18:25:45;;;;;;;37.58;15.43;;;;;;;;;;8384470;28;20618;-87
2023/01/11 18:29:50;;;;;;;31.98;13.38;;;;;;;;;;8381195;28;20052;-87
2023/01/11 18:33:54;;;;;;;39.70;16.52;;;;;;;;;;8376529;28;20769;-87
2023/01/11 18:37:57;;;;;;;34.70;16.75;;;;;;;;;;8381827;28;20222;-86
2023/01/11 18:42:10;;;;;;;41.10;18.02;;;;;;;;;;8388667;28;20052;-87
2023/01/11 18:46:13;;;;;;;43.35;19.00;;;;;;;;;;8391044;28;20109;-87
2023/01/11 18:50:17;;;;;;;47.00;17.05;;;;;;;;;;8390605;28;20052;-86
2023/01/11 18:54:20;;;;;;;49.63;19.25;;;;;;;;;;8391236;28;20121;-86
2023/01/11 18:58:25;;;;;;;44.92;16.67;;;;;;;;;;8438849;27;20064;-86
2023/01/11 19:02:39;;;;;;;45.78;22.17;;;;;;;;;;8531386;27;20049;-87
2023/01/11 19:06:43;;;;;;;56.08;23.48;;;;;;;;;;8506578;27;20031;-87
2023/01/11 19:10:47;;;;;;;48.03;23.58;;;;;;;;;;8515823;27;20039;-86
2023/01/11 19:14:53;;;;;;;47.85;21.67;;;;;;;;;;8510897;27;20047;-86
2023/01/11 19:18:57;;;;;;;45.15;19.20;;;;;;;;;;8513256;27;20394;-86
2023/01/11 19:23:04;;;;;;;50.33;24.00;;;;;;;;;;8513707;27;20047;-87
2023/01/11 19:27:07;;;;;;;46.05;18.40;;;;;;;;;;8509672;27;20126;-87
2023/01/11 19:31:13;;;;;;;33.22;13.60;;;;;;;;;;8516123;27;20588;-87
2023/01/11 19:35:18;;;;;;;48.95;21.70;;;;;;;;;;8517777;27;20043;-87
2023/01/11 19:39:21;;;;;;;52.28;21.17;;;;;;;;;;8512030;27;20058;-86
2023/01/11 19:43:29;;;;;;;61.03;27.42;;;;;;;;;;8507927;27;20039;-87
2023/01/11 19:47:38;;;;;;;54.10;22.55;;;;;;;;;;8516181;27;20043;-87
2023/01/11 19:51:42;;;;;;;93.05;33.78;;;;;;;;;;8512813;27;20514;-86
2023/01/11 19:55:45;;;;;;;41.47;17.38;;;;;;;;;;8520890;27;20041;-86
2023/01/11 19:59:50;;;;;;;57.30;23.65;;;;;;;;;;8522114;27;20126;-86
2023/01/11 20:03:58;;;;;;;63.20;27.50;;;;;;;;;;8512762;27;20122;-88
2023/01/11 20:08:03;;;;;;;96.70;37.45;;;;;;;;;;8514743;27;20036;-88
2023/01/11 20:12:09;;;;;;;73.05;26.80;;;;;;;;;;8524566;27;20058;-87
2023/01/11 20:16:13;;;;;;;52.42;19.85;;;;;;;;;;8520326;27;20567;-87
2023/01/11 20:20:19;;;;;;;47.03;18.65;;;;;;;;;;8514020;27;20100;-87
2023/01/11 20:24:27;;;;;;;160.52;55.60;;;;;;;;;;8500091;27;20047;-87
2023/01/11 20:28:31;;;;;;;64.38;23.27;;;;;;;;;;8509223;27;20192;-86
2023/01/11 20:32:36;;;;;;;46.55;19.13;;;;;;;;;;8516009;27;20146;-87
2023/01/11 20:36:41;;;;;;;46.60;17.30;;;;;;;;;;8516184;27;20558;-87
2023/01/11 20:40:44;;;;;;;50.58;20.23;;;;;;;;;;8517648;27;20045;-87
2023/01/11 20:44:52;;;;;;;77.28;27.35;;;;;;;;;;8532021;27;20047;-88
2023/01/11 20:49:00;;;;;;;40.42;17.60;;;;;;;;;;8514065;27;20039;-89
2023/01/11 20:53:05;;;;;;;56.25;21.50;;;;;;;;;;8515761;27;20051;-88
2023/01/11 20:57:11;;;;;;;61.95;20.50;;;;;;;;;;8515835;27;20150;-87
2023/01/11 21:01:16;;;;;;;53.28;19.55;;;;;;;;;;8516713;27;20050;-87
2023/01/11 21:05:19;;;;;;;43.92;17.95;;;;;;;;;;8521017;27;20436;-87
2023/01/11 21:09:23;;;;;;;63.70;19.85;;;;;;;;;;8508174;27;20235;-87
2023/01/11 21:13:26;;;;;;;37.92;16.63;;;;;;;;;;8534246;27;20055;-86
2023/01/11 21:17:28;;;;;;;57.03;20.75;;;;;;;;;;8501085;27;20041;-88
2023/01/11 21:21:33;;;;;;;51.00;19.35;;;;;;;;;;8502496;27;20106;-87
2023/01/11 21:25:38;;;;;;;48.40;18.15;;;;;;;;;;8500812;27;20486;-88
2023/01/11 21:29:41;;;;;;;29.33;13.18;;;;;;;;;;8500677;27;20063;-87
2023/01/11 21:33:44;;;;;;;29.98;12.45;;;;;;;;;;8516688;27;20110;-87
2023/01/11 21:37:47;;;;;;;17.48;8.07;;;;;;;;;;8514922;27;20058;-87
2023/01/11 21:41:58;;;;;;;38.22;19.30;;;;;;;;;;8529917;27;20070;-87
2023/01/11 21:46:02;;;;;;;44.10;17.27;;;;;;;;;;8510721;27;20092;-87
2023/01/11 21:50:05;;;;;;;44.80;17.08;;;;;;;;;;8516205;27;20062;-87
2023/01/11 21:54:10;;;;;;;39.42;16.55;;;;;;;;;;8534305;27;20043;-88
2023/01/11 21:58:15;;;;;;;46.45;18.05;;;;;;;;;;8516431;27;20035;-88
2023/01/11 22:02:17;;;;;;;33.45;13.30;;;;;;;;;;8499717;27;20474;-87
2023/01/11 22:06:20;;;;;;;46.35;16.70;;;;;;;;;;8516885;27;20096;-87
2023/01/11 22:10:23;;;;;;;40.13;16.63;;;;;;;;;;8533439;27;20050;-87
2023/01/11 22:14:29;;;;;;;38.40;17.38;;;;;;;;;;8515765;27;20509;-87
2023/01/11 22:18:33;;;;;;;53.15;20.80;;;;;;;;;;8499334;27;20049;-87
2023/01/11 22:22:35;;;;;;;40.67;17.45;;;;;;;;;;8517322;27;20381;-88
2023/01/11 22:26:39;;;;;;;39.35;17.48;;;;;;;;;;8508669;27;20039;-87
2023/01/11 22:30:43;;;;;;;41.70;17.60;;;;;;;;;;8498788;27;20039;-87
2023/01/11 22:34:46;;;;;;;37.10;15.98;;;;;;;;;;8502930;27;20073;-87
2023/01/11 22:38:49;;;;;;;36.35;15.30;;;;;;;;;;8509742;27;20042;-87
2023/01/11 22:42:51;;;;;;;43.58;16.98;;;;;;;;;;8508026;27;20104;-87
2023/01/11 22:46:56;;;;;;;41.75;17.02;;;;;;;;;;8512010;27;20443;-88
2023/01/11 22:50:59;;;;;;;30.77;13.93;;;;;;;;;;8508581;27;20065;-87
2023/01/11 22:55:02;;;;;;;36.63;15.27;;;;;;;;;;8531645;27;20065;-87
2023/01/11 22:59:05;;;;;;;37.47;15.02;;;;;;;;;;8514951;27;20104;-87
2023/01/11 23:03:10;;;;;;;35.40;16.05;;;;;;;;;;8518509;27;20043;-87
2023/01/11 23:07:13;;;;;;;35.10;15.25;;;;;;;;;;8503276;27;20046;-87
2023/01/11 23:13:51;;;;;;;39.95;16.23;;;;;;;;;;8505371;27;20103;-87
2023/01/11 23:15:41;;;;;;;34.45;14.70;;;;;;;;;;8514319;27;20121;-87
2023/01/11 23:19:46;;;;;;;38.30;17.58;;;;;;;;;;8507854;27;20047;-88
2023/01/11 23:23:49;;;;;;;30.23;14.55;;;;;;;;;;8518048;27;20472;-87
2023/01/11 23:27:51;;;;;;;35.22;15.18;;;;;;;;;;8510256;27;20053;-86
2023/01/11 23:31:54;;;;;;;24.27;11.25;;;;;;;;;;8503489;27;20044;-86
2023/01/11 23:35:59;;;;;;;41.67;16.58;;;;;;;;;;8508593;27;20049;-86
2023/01/11 23:40:02;;;;;;;31.05;13.93;;;;;;;;;;8500586;27;20082;-87
2023/01/11 23:44:05;;;;;;;42.92;17.45;;;;;;;;;;8508933;27;20053;-87
2023/01/11 23:48:08;;;;;;;35.50;15.35;;;;;;;;;;8507375;27;20080;-88
2023/01/11 23:52:12;;;;;;;39.30;17.70;;;;;;;;;;8497579;27;20047;-86
2023/01/11 23:56:15;;;;;;;44.13;17.02;;;;;;;;;;8516555;27;20468;-87
